sensor_id;sensor_type;location;lat;lon;timestamp;pressure;altitude;pressure_sealevel;temperature;humidity
39363;BME280;25088;43.238;23.110;2023-03-23T00:00:47;96573.25;;;6.12;100.00
39363;BME280;25088;43.238;23.110;2023-03-23T00:03:12;96576.16;;;6.11;100.00
39363;BME280;25088;43.238;23.110;2023-03-23T00:05:38;96573.31;;;6.06;100.00
39363;BME280;25088;43.238;23.110;2023-03-23T00:08:06;96546.41;;;5.86;100.00
39363;BME280;25088;43.238;23.110;2023-03-23T00:10:35;96541.50;;;5.76;100.00
39363;BME280;25088;43.238;23.110;2023-03-23T00:13:00;96572.47;;;5.87;100.00
39363;BME280;25088;43.238;23.110;2023-03-23T00:15:27;96566.50;;;5.78;100.00
39363;BME280;25088;43.238;23.110;2023-03-23T00:17:58;96539.25;;;5.55;100.00
39363;BME280;25088;43.238;23.110;2023-03-23T00:20:31;96569.06;;;5.73;100.00
39363;BME280;25088;43.238;23.110;2023-03-23T00:23:06;96555.22;;;5.63;100.00
39363;BME280;25088;43.238;23.110;2023-03-23T00:25:32;96545.56;;;5.49;100.00
39363;BME280;25088;43.238;23.110;2023-03-23T00:27:57;96575.38;;;5.67;100.00
39363;BME280;25088;43.238;23.110;2023-03-23T00:30:23;96557.53;;;5.59;100.00
39363;BME280;25088;43.238;23.110;2023-03-23T00:32:48;96577.72;;;5.82;100.00
39363;BME280;25088;43.238;23.110;2023-03-23T00:35:16;96564.56;;;5.85;100.00
39363;BME280;25088;43.238;23.110;2023-03-23T00:37:44;96573.16;;;6.01;100.00
39363;BME280;25088;43.238;23.110;2023-03-23T00:40:10;96554.19;;;6.01;100.00
39363;BME280;25088;43.238;23.110;2023-03-23T00:42:36;96551.78;;;6.11;100.00
39363;BME280;25088;43.238;23.110;2023-03-23T00:45:04;96571.28;;;6.38;100.00
39363;BME280;25088;43.238;23.110;2023-03-23T00:47:36;96552.22;;;6.26;100.00
39363;BME280;25088;43.238;23.110;2023-03-23T00:50:03;96543.06;;;6.27;100.00
39363;BME280;25088;43.238;23.110;2023-03-23T00:52:30;96565.31;;;6.47;100.00
39363;BME280;25088;43.238;23.110;2023-03-23T00:54:56;96563.31;;;6.55;100.00
39363;BME280;25088;43.238;23.110;2023-03-23T00:57:21;96570.34;;;6.62;100.00
39363;BME280;25088;43.238;23.110;2023-03-23T00:59:50;96564.22;;;6.67;100.00
39363;BME280;25088;43.238;23.110;2023-03-23T01:02:16;96535.28;;;6.61;100.00
39363;BME280;25088;43.238;23.110;2023-03-23T01:04:42;96570.75;;;6.89;100.00
39363;BME280;25088;43.238;23.110;2023-03-23T01:07:10;96567.94;;;6.96;100.00
39363;BME280;25088;43.238;23.110;2023-03-23T01:09:38;96562.66;;;7.01;100.00
39363;BME280;25088;43.238;23.110;2023-03-23T01:12:05;96560.69;;;7.08;100.00
39363;BME280;25088;43.238;23.110;2023-03-23T01:14:31;96572.13;;;7.10;100.00
39363;BME280;25088;43.238;23.110;2023-03-23T01:16:56;96563.88;;;7.17;100.00
39363;BME280;25088;43.238;23.110;2023-03-23T01:19:22;96561.25;;;7.10;100.00
39363;BME280;25088;43.238;23.110;2023-03-23T01:21:48;96543.66;;;7.01;100.00
39363;BME280;25088;43.238;23.110;2023-03-23T01:24:13;96557.13;;;7.08;100.00
39363;BME280;25088;43.238;23.110;2023-03-23T01:26:38;96544.25;;;7.03;100.00
39363;BME280;25088;43.238;23.110;2023-03-23T01:29:04;96557.38;;;7.06;100.00
39363;BME280;25088;43.238;23.110;2023-03-23T01:31:30;96530.34;;;6.69;100.00
39363;BME280;25088;43.238;23.110;2023-03-23T01:33:55;96541.34;;;6.74;100.00
39363;BME280;25088;43.238;23.110;2023-03-23T01:36:24;96545.22;;;6.67;100.00
39363;BME280;25088;43.238;23.110;2023-03-23T01:38:52;96512.88;;;6.35;100.00
39363;BME280;25088;43.238;23.110;2023-03-23T01:41:19;96527.88;;;6.38;100.00
39363;BME280;25088;43.238;23.110;2023-03-23T01:44:05;96542.66;;;6.42;100.00
39363;BME280;25088;43.238;23.110;2023-03-23T01:46:33;96546.50;;;6.34;100.00
39363;BME280;25088;43.238;23.110;2023-03-23T01:49:06;96541.50;;;6.31;100.00
39363;BME280;25088;43.238;23.110;2023-03-23T01:51:37;96540.19;;;6.22;100.00
39363;BME280;25088;43.238;23.110;2023-03-23T01:54:08;96514.59;;;6.00;100.00
39363;BME280;25088;43.238;23.110;2023-03-23T01:56:41;96544.63;;;6.16;100.00
39363;BME280;25088;43.238;23.110;2023-03-23T01:59:11;96548.03;;;6.12;100.00
39363;BME280;25088;43.238;23.110;2023-03-23T02:01:37;96544.03;;;6.14;100.00
39363;BME280;25088;43.238;23.110;2023-03-23T02:04:05;96543.28;;;6.07;100.00
39363;BME280;25088;43.238;23.110;2023-03-23T02:06:31;96548.34;;;6.04;100.00
39363;BME280;25088;43.238;23.110;2023-03-23T02:08:57;96544.66;;;5.98;100.00
39363;BME280;25088;43.238;23.110;2023-03-23T02:11:23;96537.84;;;5.89;100.00
39363;BME280;25088;43.238;23.110;2023-03-23T02:13:49;96559.69;;;5.94;100.00
39363;BME280;25088;43.238;23.110;2023-03-23T02:21:45;96552.81;;;5.73;100.00
39363;BME280;25088;43.238;23.110;2023-03-23T02:30:27;96560.16;;;5.48;100.00
39363;BME280;25088;43.238;23.110;2023-03-23T02:35:50;96559.28;;;5.29;100.00
39363;BME280;25088;43.238;23.110;2023-03-23T02:38:42;96557.66;;;5.21;100.00
39363;BME280;25088;43.238;23.110;2023-03-23T02:41:10;96564.75;;;5.22;100.00
39363;BME280;25088;43.238;23.110;2023-03-23T02:43:41;96563.91;;;5.22;100.00
39363;BME280;25088;43.238;23.110;2023-03-23T02:46:10;96560.22;;;5.16;100.00
39363;BME280;25088;43.238;23.110;2023-03-23T02:48:38;96558.78;;;5.13;100.00
39363;BME280;25088;43.238;23.110;2023-03-23T02:51:06;96565.78;;;5.21;100.00
39363;BME280;25088;43.238;23.110;2023-03-23T02:53:34;96571.75;;;5.30;100.00
39363;BME280;25088;43.238;23.110;2023-03-23T02:56:03;96568.88;;;5.25;100.00
39363;BME280;25088;43.238;23.110;2023-03-23T02:58:30;96572.66;;;5.24;100.00
39363;BME280;25088;43.238;23.110;2023-03-23T03:00:56;96567.63;;;5.27;100.00
39363;BME280;25088;43.238;23.110;2023-03-23T03:03:27;96577.50;;;5.40;100.00
39363;BME280;25088;43.238;23.110;2023-03-23T03:11:03;96585.56;;;5.47;100.00
39363;BME280;25088;43.238;23.110;2023-03-23T03:13:54;96577.81;;;5.50;100.00
39363;BME280;25088;43.238;23.110;2023-03-23T03:21:28;96579.94;;;5.48;100.00
39363;BME280;25088;43.238;23.110;2023-03-23T03:24:00;96582.34;;;5.56;100.00
39363;BME280;25088;43.238;23.110;2023-03-23T03:26:27;96574.28;;;5.50;100.00
39363;BME280;25088;43.238;23.110;2023-03-23T03:28:54;96574.69;;;5.53;100.00
39363;BME280;25088;43.238;23.110;2023-03-23T03:31:23;96575.91;;;5.57;100.00
39363;BME280;25088;43.238;23.110;2023-03-23T03:33:51;96560.59;;;5.44;100.00
39363;BME280;25088;43.238;23.110;2023-03-23T03:36:20;96541.00;;;5.24;100.00
39363;BME280;25088;43.238;23.110;2023-03-23T03:38:49;96571.34;;;5.51;100.00
39363;BME280;25088;43.238;23.110;2023-03-23T03:41:15;96582.72;;;5.60;100.00
39363;BME280;25088;43.238;23.110;2023-03-23T03:43:41;96555.34;;;5.50;100.00
39363;BME280;25088;43.238;23.110;2023-03-23T03:46:07;96578.44;;;5.70;100.00
39363;BME280;25088;43.238;23.110;2023-03-23T03:48:33;96558.78;;;5.57;100.00
39363;BME280;25088;43.238;23.110;2023-03-23T03:50:58;96584.19;;;5.62;100.00
39363;BME280;25088;43.238;23.110;2023-03-23T03:53:26;96561.72;;;5.55;100.00
39363;BME280;25088;43.238;23.110;2023-03-23T03:55:52;96585.00;;;5.63;100.00
39363;BME280;25088;43.238;23.110;2023-03-23T03:58:21;96582.88;;;5.65;100.00
39363;BME280;25088;43.238;23.110;2023-03-23T04:00:47;96555.72;;;5.53;100.00
39363;BME280;25088;43.238;23.110;2023-03-23T04:03:13;96572.56;;;5.55;100.00
39363;BME280;25088;43.238;23.110;2023-03-23T04:05:39;96577.47;;;5.65;100.00
39363;BME280;25088;43.238;23.110;2023-03-23T04:08:05;96585.09;;;5.75;100.00
39363;BME280;25088;43.238;23.110;2023-03-23T04:10:31;96583.81;;;5.77;100.00
39363;BME280;25088;43.238;23.110;2023-03-23T04:12:57;96575.53;;;5.72;100.00
39363;BME280;25088;43.238;23.110;2023-03-23T04:15:22;96581.56;;;5.74;100.00
39363;BME280;25088;43.238;23.110;2023-03-23T04:17:48;96562.06;;;5.65;100.00
39363;BME280;25088;43.238;23.110;2023-03-23T04:20:15;96552.72;;;5.61;100.00
39363;BME280;25088;43.238;23.110;2023-03-23T04:22:46;96582.78;;;5.78;100.00
39363;BME280;25088;43.238;23.110;2023-03-23T04:25:18;96578.44;;;5.70;100.00
39363;BME280;25088;43.238;23.110;2023-03-23T04:27:47;96579.81;;;5.80;100.00
39363;BME280;25088;43.238;23.110;2023-03-23T04:30:21;96578.41;;;5.77;100.00
39363;BME280;25088;43.238;23.110;2023-03-23T04:32:49;96580.72;;;5.74;100.00
39363;BME280;25088;43.238;23.110;2023-03-23T04:35:21;96587.03;;;5.67;100.00
39363;BME280;25088;43.238;23.110;2023-03-23T04:37:47;96560.84;;;5.61;100.00
39363;BME280;25088;43.238;23.110;2023-03-23T04:40:14;96578.25;;;5.72;100.00
39363;BME280;25088;43.238;23.110;2023-03-23T04:42:41;96586.38;;;5.72;100.00
39363;BME280;25088;43.238;23.110;2023-03-23T04:45:12;96583.44;;;5.74;100.00
39363;BME280;25088;43.238;23.110;2023-03-23T04:47:40;96556.72;;;5.59;100.00
39363;BME280;25088;43.238;23.110;2023-03-23T04:50:10;96577.88;;;5.68;100.00
39363;BME280;25088;43.238;23.110;2023-03-23T04:52:38;96595.50;;;5.78;100.00
39363;BME280;25088;43.238;23.110;2023-03-23T04:55:06;96584.03;;;5.76;100.00
39363;BME280;25088;43.238;23.110;2023-03-23T04:57:32;96577.63;;;5.70;100.00
39363;BME280;25088;43.238;23.110;2023-03-23T04:59:59;96572.09;;;5.83;100.00
39363;BME280;25088;43.238;23.110;2023-03-23T05:02:25;96591.41;;;6.12;100.00
39363;BME280;25088;43.238;23.110;2023-03-23T05:04:56;96594.75;;;6.26;100.00
39363;BME280;25088;43.238;23.110;2023-03-23T05:07:22;96603.53;;;6.28;100.00
39363;BME280;25088;43.238;23.110;2023-03-23T05:09:47;96602.06;;;6.43;100.00
39363;BME280;25088;43.238;23.110;2023-03-23T05:12:13;96598.13;;;6.58;100.00
39363;BME280;25088;43.238;23.110;2023-03-23T05:14:42;96601.72;;;6.70;100.00
39363;BME280;25088;43.238;23.110;2023-03-23T05:17:08;96607.41;;;6.80;100.00
39363;BME280;25088;43.238;23.110;2023-03-23T05:19:34;96601.44;;;6.90;100.00
39363;BME280;25088;43.238;23.110;2023-03-23T05:22:01;96592.06;;;7.04;100.00
39363;BME280;25088;43.238;23.110;2023-03-23T05:24:31;96609.81;;;7.18;100.00
39363;BME280;25088;43.238;23.110;2023-03-23T05:26:58;96568.94;;;7.13;100.00
39363;BME280;25088;43.238;23.110;2023-03-23T05:29:24;96602.41;;;7.49;100.00
39363;BME280;25088;43.238;23.110;2023-03-23T05:31:51;96607.50;;;7.69;100.00
39363;BME280;25088;43.238;23.110;2023-03-23T05:34:18;96611.78;;;7.88;100.00
39363;BME280;25088;43.238;23.110;2023-03-23T05:36:44;96613.16;;;8.14;100.00
39363;BME280;25088;43.238;23.110;2023-03-23T05:39:13;96609.25;;;8.34;100.00
39363;BME280;25088;43.238;23.110;2023-03-23T05:41:39;96577.56;;;8.39;100.00
39363;BME280;25088;43.238;23.110;2023-03-23T05:44:05;96606.81;;;8.72;100.00
39363;BME280;25088;43.238;23.110;2023-03-23T05:46:30;96608.38;;;8.97;100.00
39363;BME280;25088;43.238;23.110;2023-03-23T05:48:56;96596.69;;;9.13;99.10
39363;BME280;25088;43.238;23.110;2023-03-23T05:51:21;96601.19;;;9.53;97.87
39363;BME280;25088;43.238;23.110;2023-03-23T05:53:47;96601.53;;;9.90;93.67
39363;BME280;25088;43.238;23.110;2023-03-23T05:56:13;96614.31;;;10.06;91.91
39363;BME280;25088;43.238;23.110;2023-03-23T05:58:39;96608.63;;;10.25;90.85
39363;BME280;25088;43.238;23.110;2023-03-23T06:01:08;96611.16;;;10.53;89.81
39363;BME280;25088;43.238;23.110;2023-03-23T06:03:34;96615.69;;;10.65;89.47
39363;BME280;25088;43.238;23.110;2023-03-23T06:06:02;96612.06;;;11.08;87.93
39363;BME280;25088;43.238;23.110;2023-03-23T06:08:28;96605.41;;;11.53;84.10
39363;BME280;25088;43.238;23.110;2023-03-23T06:10:54;96610.72;;;11.97;80.03
39363;BME280;25088;43.238;23.110;2023-03-23T06:13:20;96613.09;;;12.20;78.46
39363;BME280;25088;43.238;23.110;2023-03-23T06:15:46;96609.81;;;12.76;76.71
39363;BME280;25088;43.238;23.110;2023-03-23T06:18:12;96575.34;;;12.85;73.26
39363;BME280;25088;43.238;23.110;2023-03-23T06:20:39;96588.38;;;13.40;71.04
39363;BME280;25088;43.238;23.110;2023-03-23T06:23:04;96611.16;;;14.02;70.06
39363;BME280;25088;43.238;23.110;2023-03-23T06:25:30;96615.22;;;14.56;67.99
39363;BME280;25088;43.238;23.110;2023-03-23T06:27:56;96554.28;;;14.48;66.22
39363;BME280;25088;43.238;23.110;2023-03-23T06:30:21;96613.34;;;15.11;62.25
39363;BME280;25088;43.238;23.110;2023-03-23T06:32:47;96595.03;;;15.40;60.56
39363;BME280;25088;43.238;23.110;2023-03-23T06:35:14;96611.34;;;15.76;60.37
39363;BME280;25088;43.238;23.110;2023-03-23T06:37:40;96614.72;;;16.02;57.28
39363;BME280;25088;43.238;23.110;2023-03-23T06:40:06;96614.09;;;16.10;57.14
39363;BME280;25088;43.238;23.110;2023-03-23T06:42:33;96607.25;;;16.37;56.49
39363;BME280;25088;43.238;23.110;2023-03-23T06:44:59;96616.13;;;16.28;57.28
39363;BME280;25088;43.238;23.110;2023-03-23T06:47:26;96622.81;;;16.22;57.70
39363;BME280;25088;43.238;23.110;2023-03-23T06:49:54;96624.13;;;15.96;58.85
39363;BME280;25088;43.238;23.110;2023-03-23T06:52:20;96618.47;;;15.82;60.38
39363;BME280;25088;43.238;23.110;2023-03-23T06:54:47;96624.19;;;15.86;60.40
39363;BME280;25088;43.238;23.110;2023-03-23T06:57:13;96632.94;;;15.54;61.78
39363;BME280;25088;43.238;23.110;2023-03-23T06:59:38;96635.19;;;15.46;63.16
39363;BME280;25088;43.238;23.110;2023-03-23T07:02:04;96618.00;;;15.70;62.99
39363;BME280;25088;43.238;23.110;2023-03-23T07:04:29;96615.72;;;16.40;59.31
39363;BME280;25088;43.238;23.110;2023-03-23T07:06:55;96611.91;;;17.13;57.67
39363;BME280;25088;43.238;23.110;2023-03-23T07:09:21;96632.47;;;17.64;55.32
39363;BME280;25088;43.238;23.110;2023-03-23T07:11:47;96627.28;;;17.81;54.75
39363;BME280;25088;43.238;23.110;2023-03-23T07:14:13;96624.66;;;18.22;53.67
39363;BME280;25088;43.238;23.110;2023-03-23T07:16:38;96632.50;;;18.48;53.09
39363;BME280;25088;43.238;23.110;2023-03-23T07:19:04;96601.97;;;18.39;51.39
39363;BME280;25088;43.238;23.110;2023-03-23T07:21:29;96620.41;;;18.76;51.11
39363;BME280;25088;43.238;23.110;2023-03-23T07:23:55;96604.13;;;18.75;50.50
39363;BME280;25088;43.238;23.110;2023-03-23T07:26:20;96626.88;;;18.85;50.66
39363;BME280;25088;43.238;23.110;2023-03-23T07:28:46;96623.97;;;19.32;49.91
39363;BME280;25088;43.238;23.110;2023-03-23T07:31:12;96629.28;;;19.42;48.39
39363;BME280;25088;43.238;23.110;2023-03-23T07:33:37;96601.50;;;19.33;49.20
39363;BME280;25088;43.238;23.110;2023-03-23T07:36:04;96641.66;;;19.58;49.23
39363;BME280;25088;43.238;23.110;2023-03-23T07:38:30;96625.47;;;19.79;49.25
39363;BME280;25088;43.238;23.110;2023-03-23T07:40:56;96639.66;;;20.00;47.62
39363;BME280;25088;43.238;23.110;2023-03-23T07:43:22;96639.97;;;20.21;46.16
39363;BME280;25088;43.238;23.110;2023-03-23T07:45:48;96639.03;;;20.48;46.14
39363;BME280;25088;43.238;23.110;2023-03-23T07:48:14;96619.50;;;20.31;46.37
39363;BME280;25088;43.238;23.110;2023-03-23T07:50:39;96642.69;;;20.57;46.63
39363;BME280;25088;43.238;23.110;2023-03-23T07:53:05;96642.09;;;20.69;45.48
39363;BME280;25088;43.238;23.110;2023-03-23T07:55:31;96642.72;;;20.66;45.05
39363;BME280;25088;43.238;23.110;2023-03-23T07:57:57;96647.50;;;21.05;44.09
39363;BME280;25088;43.238;23.110;2023-03-23T08:00:23;96638.59;;;21.26;43.67
39363;BME280;25088;43.238;23.110;2023-03-23T08:02:58;96629.53;;;21.51;43.40
39363;BME280;25088;43.238;23.110;2023-03-23T08:05:25;96641.03;;;21.84;42.91
39363;BME280;25088;43.238;23.110;2023-03-23T08:07:52;96637.06;;;21.68;43.78
39363;BME280;25088;43.238;23.110;2023-03-23T08:10:20;96639.19;;;21.62;42.69
39363;BME280;25088;43.238;23.110;2023-03-23T08:12:51;96644.63;;;22.02;42.19
39363;BME280;25088;43.238;23.110;2023-03-23T08:15:17;96636.31;;;22.19;40.76
39363;BME280;25088;43.238;23.110;2023-03-23T08:17:43;96641.50;;;22.64;39.84
39363;BME280;25088;43.238;23.110;2023-03-23T08:20:11;96638.31;;;22.92;41.32
39363;BME280;25088;43.238;23.110;2023-03-23T08:22:44;96630.31;;;22.82;40.00
39363;BME280;25088;43.238;23.110;2023-03-23T08:25:13;96624.34;;;22.45;39.13
39363;BME280;25088;43.238;23.110;2023-03-23T08:27:40;96635.91;;;22.73;38.83
39363;BME280;25088;43.238;23.110;2023-03-23T08:30:16;96642.25;;;22.91;38.88
39363;BME280;25088;43.238;23.110;2023-03-23T08:32:43;96645.69;;;23.35;38.90
39363;BME280;25088;43.238;23.110;2023-03-23T08:35:10;96637.56;;;23.21;38.39
39363;BME280;25088;43.238;23.110;2023-03-23T08:37:36;96636.94;;;23.15;37.69
39363;BME280;25088;43.238;23.110;2023-03-23T08:40:03;96642.75;;;23.31;37.59
39363;BME280;25088;43.238;23.110;2023-03-23T08:42:38;96640.56;;;23.07;37.89
39363;BME280;25088;43.238;23.110;2023-03-23T08:45:05;96639.78;;;23.36;37.98
39363;BME280;25088;43.238;23.110;2023-03-23T08:47:33;96642.53;;;23.75;37.57
39363;BME280;25088;43.238;23.110;2023-03-23T08:49:58;96631.09;;;24.30;35.85
39363;BME280;25088;43.238;23.110;2023-03-23T08:52:25;96630.50;;;24.79;35.37
39363;BME280;25088;43.238;23.110;2023-03-23T08:54:50;96626.44;;;24.43;35.77
39363;BME280;25088;43.238;23.110;2023-03-23T08:57:16;96601.00;;;24.03;35.93
39363;BME280;25088;43.238;23.110;2023-03-23T08:59:43;96622.84;;;24.42;36.14
39363;BME280;25088;43.238;23.110;2023-03-23T09:02:12;96623.00;;;24.58;34.74
39363;BME280;25088;43.238;23.110;2023-03-23T09:04:39;96619.41;;;24.58;34.71
39363;BME280;25088;43.238;23.110;2023-03-23T09:07:08;96619.81;;;23.64;36.56
39363;BME280;25088;43.238;23.110;2023-03-23T09:09:34;96612.28;;;22.96;38.75
39363;BME280;25088;43.238;23.110;2023-03-23T09:12:00;96595.91;;;22.05;38.26
39363;BME280;25088;43.238;23.110;2023-03-23T09:14:26;96610.28;;;21.72;39.94
39363;BME280;25088;43.238;23.110;2023-03-23T09:16:52;96623.00;;;21.07;40.87
39363;BME280;25088;43.238;23.110;2023-03-23T09:19:17;96606.63;;;20.97;40.07
39363;BME280;25088;43.238;23.110;2023-03-23T09:21:43;96622.34;;;21.02;38.47
39363;BME280;25088;43.238;23.110;2023-03-23T09:24:10;96616.81;;;20.71;40.81
39363;BME280;25088;43.238;23.110;2023-03-23T09:26:36;96637.00;;;19.95;41.87
39363;BME280;25088;43.238;23.110;2023-03-23T09:29:02;96627.81;;;19.58;42.63
39363;BME280;25088;43.238;23.110;2023-03-23T09:31:27;96622.84;;;20.19;42.55
39363;BME280;25088;43.238;23.110;2023-03-23T09:33:54;96623.50;;;21.66;40.12
39363;BME280;25088;43.238;23.110;2023-03-23T09:36:23;96625.53;;;23.00;37.87
39363;BME280;25088;43.238;23.110;2023-03-23T09:38:51;96615.63;;;23.79;36.08
39363;BME280;25088;43.238;23.110;2023-03-23T09:44:10;96612.56;;;24.80;34.53
39363;BME280;25088;43.238;23.110;2023-03-23T09:49:40;96620.47;;;25.47;33.89
39363;BME280;25088;43.238;23.110;2023-03-23T09:52:16;96571.31;;;24.19;34.89
39363;BME280;25088;43.238;23.110;2023-03-23T09:57:27;96591.19;;;25.69;33.00
39363;BME280;25088;43.238;23.110;2023-03-23T10:00:06;96613.13;;;25.43;34.68
39363;BME280;25088;43.238;23.110;2023-03-23T10:03:10;96610.31;;;25.80;32.96
39363;BME280;25088;43.238;23.110;2023-03-23T10:05:45;96589.75;;;26.00;32.08
39363;BME280;25088;43.238;23.110;2023-03-23T10:08:27;96601.44;;;26.30;31.86
39363;BME280;25088;43.238;23.110;2023-03-23T10:14:06;96582.34;;;26.76;30.97
39363;BME280;25088;43.238;23.110;2023-03-23T10:16:39;96600.69;;;26.89;31.47
39363;BME280;25088;43.238;23.110;2023-03-23T10:22:11;96606.38;;;26.93;30.42
39363;BME280;25088;43.238;23.110;2023-03-23T10:27:41;96599.19;;;27.23;30.92
39363;BME280;25088;43.238;23.110;2023-03-23T10:30:33;96601.47;;;27.69;30.47
39363;BME280;25088;43.238;23.110;2023-03-23T10:35:40;96563.13;;;27.22;30.86
39363;BME280;25088;43.238;23.110;2023-03-23T10:38:22;96593.22;;;25.20;33.21
39363;BME280;25088;43.238;23.110;2023-03-23T10:40:54;96609.31;;;24.78;33.75
39363;BME280;25088;43.238;23.110;2023-03-23T10:43:22;96594.53;;;23.10;36.71
39363;BME280;25088;43.238;23.110;2023-03-23T10:45:55;96553.06;;;21.97;38.29
39363;BME280;25088;43.238;23.110;2023-03-23T10:48:27;96602.13;;;22.92;36.92
39363;BME280;25088;43.238;23.110;2023-03-23T10:50:58;96563.25;;;23.63;36.24
39363;BME280;25088;43.238;23.110;2023-03-23T10:53:37;96587.91;;;24.69;34.35
39363;BME280;25088;43.238;23.110;2023-03-23T10:56:04;96580.25;;;24.79;34.06
39363;BME280;25088;43.238;23.110;2023-03-23T10:58:32;96580.47;;;25.96;33.59
39363;BME280;25088;43.238;23.110;2023-03-23T11:01:00;96575.63;;;25.44;32.35
39363;BME280;25088;43.238;23.110;2023-03-23T11:06:01;96557.13;;;25.51;32.36
39363;BME280;25088;43.238;23.110;2023-03-23T11:08:31;96576.91;;;26.11;31.52
39363;BME280;25088;43.238;23.110;2023-03-23T11:11:10;96580.19;;;27.01;29.94
39363;BME280;25088;43.238;23.110;2023-03-23T11:13:40;96578.53;;;27.00;29.94
39363;BME280;25088;43.238;23.110;2023-03-23T11:16:08;96555.69;;;26.82;29.07
39363;BME280;25088;43.238;23.110;2023-03-23T11:18:39;96563.59;;;27.08;29.63
39363;BME280;25088;43.238;23.110;2023-03-23T11:21:07;96572.75;;;27.56;28.85
39363;BME280;25088;43.238;23.110;2023-03-23T11:23:42;96572.25;;;27.19;30.08
39363;BME280;25088;43.238;23.110;2023-03-23T11:28:42;96562.03;;;27.77;29.76
39363;BME280;25088;43.238;23.110;2023-03-23T11:31:09;96556.00;;;28.14;29.26
39363;BME280;25088;43.238;23.110;2023-03-23T11:36:17;96554.72;;;27.73;29.64
39363;BME280;25088;43.238;23.110;2023-03-23T11:38:44;96544.50;;;27.80;29.31
39363;BME280;25088;43.238;23.110;2023-03-23T11:41:18;96556.06;;;26.96;30.66
39363;BME280;25088;43.238;23.110;2023-03-23T11:43:45;96558.75;;;26.93;30.96
39363;BME280;25088;43.238;23.110;2023-03-23T11:49:01;96548.75;;;27.23;30.43
39363;BME280;25088;43.238;23.110;2023-03-23T11:51:49;96570.50;;;24.97;32.63
39363;BME280;25088;43.238;23.110;2023-03-23T11:54:35;96549.00;;;25.22;31.52
39363;BME280;25088;43.238;23.110;2023-03-23T11:57:10;96550.91;;;26.39;31.54
39363;BME280;25088;43.238;23.110;2023-03-23T11:59:39;96548.41;;;26.49;31.08
39363;BME280;25088;43.238;23.110;2023-03-23T12:24:30;96547.50;;;20.88;38.11
39363;BME280;25088;43.238;23.110;2023-03-23T12:27:18;96537.31;;;22.83;35.77
39363;BME280;25088;43.238;23.110;2023-03-23T12:35:43;96530.91;;;24.83;32.49
39363;BME280;25088;43.238;23.110;2023-03-23T12:39:05;96513.38;;;25.71;30.76
39363;BME280;25088;43.238;23.110;2023-03-23T12:44:07;96513.03;;;26.73;29.70
39363;BME280;25088;43.238;23.110;2023-03-23T12:46:45;96509.88;;;27.22;27.92
39363;BME280;25088;43.238;23.110;2023-03-23T12:49:45;96514.88;;;27.48;28.03
39363;BME280;25088;43.238;23.110;2023-03-23T12:52:49;96512.66;;;28.12;27.65
39363;BME280;25088;43.238;23.110;2023-03-23T12:55:30;96510.88;;;27.49;28.09
39363;BME280;25088;43.238;23.110;2023-03-23T12:58:06;96505.06;;;27.06;29.72
39363;BME280;25088;43.238;23.110;2023-03-23T13:00:53;96507.34;;;27.52;28.86
39363;BME280;25088;43.238;23.110;2023-03-23T13:03:41;96504.25;;;27.57;29.37
39363;BME280;25088;43.238;23.110;2023-03-23T13:06:26;96507.81;;;26.87;29.70
39363;BME280;25088;43.238;23.110;2023-03-23T13:11:28;96503.72;;;27.00;29.93
39363;BME280;25088;43.238;23.110;2023-03-23T13:24:15;96493.56;;;26.33;29.79
39363;BME280;25088;43.238;23.110;2023-03-23T13:26:43;96491.59;;;26.05;30.69
39363;BME280;25088;43.238;23.110;2023-03-23T13:29:13;96485.91;;;26.01;30.25
39363;BME280;25088;43.238;23.110;2023-03-23T13:31:41;96470.16;;;26.25;29.65
39363;BME280;25088;43.238;23.110;2023-03-23T13:37:02;96478.25;;;26.74;29.32
39363;BME280;25088;43.238;23.110;2023-03-23T13:39:33;96474.47;;;26.66;29.25
39363;BME280;25088;43.238;23.110;2023-03-23T13:42:28;96472.28;;;26.91;28.66
39363;BME280;25088;43.238;23.110;2023-03-23T13:47:39;96467.41;;;26.72;29.03
39363;BME280;25088;43.238;23.110;2023-03-23T14:06:00;96437.81;;;24.91;31.73
39363;BME280;25088;43.238;23.110;2023-03-23T14:11:00;96426.91;;;24.73;32.55
39363;BME280;25088;43.238;23.110;2023-03-23T14:16:21;96456.59;;;24.20;32.91
39363;BME280;25088;43.238;23.110;2023-03-23T14:18:52;96459.16;;;24.25;32.31
39363;BME280;25088;43.238;23.110;2023-03-23T14:21:26;96459.00;;;23.97;32.97
39363;BME280;25088;43.238;23.110;2023-03-23T14:23:55;96439.34;;;23.40;33.38
39363;BME280;25088;43.238;23.110;2023-03-23T14:26:22;96459.44;;;23.45;33.75
39363;BME280;25088;43.238;23.110;2023-03-23T14:28:50;96460.69;;;24.23;33.35
39363;BME280;25088;43.238;23.110;2023-03-23T14:31:23;96457.53;;;24.12;32.60
39363;BME280;25088;43.238;23.110;2023-03-23T14:33:50;96449.56;;;23.90;32.46
39363;BME280;25088;43.238;23.110;2023-03-23T14:36:28;96454.25;;;24.10;33.56
39363;BME280;25088;43.238;23.110;2023-03-23T14:41:30;96453.09;;;24.11;32.90
39363;BME280;25088;43.238;23.110;2023-03-23T14:43:56;96434.75;;;24.22;32.39
39363;BME280;25088;43.238;23.110;2023-03-23T14:46:24;96425.75;;;23.92;32.49
39363;BME280;25088;43.238;23.110;2023-03-23T14:48:49;96450.28;;;23.66;32.80
39363;BME280;25088;43.238;23.110;2023-03-23T14:51:18;96448.84;;;23.39;33.13
39363;BME280;25088;43.238;23.110;2023-03-23T14:53:44;96453.59;;;23.59;33.17
39363;BME280;25088;43.238;23.110;2023-03-23T14:56:13;96443.81;;;23.11;33.64
39363;BME280;25088;43.238;23.110;2023-03-23T14:58:45;96450.31;;;22.94;34.69
39363;BME280;25088;43.238;23.110;2023-03-23T15:01:14;96445.53;;;22.36;34.86
39363;BME280;25088;43.238;23.110;2023-03-23T15:03:44;96442.78;;;22.27;35.08
39363;BME280;25088;43.238;23.110;2023-03-23T15:06:19;96443.13;;;22.17;35.93
39363;BME280;25088;43.238;23.110;2023-03-23T15:08:47;96447.53;;;22.27;35.64